• Join FlightAware (Why Join?)
  • Login
  • US Flag 
12:41AM EDT


 

Airport Tracker/Info


-or-


 

Live Flight TrackerFlight Track Log ✈ N415JA ✈ 31-Oct-2013 ✈ KFNL - KTMB

Flight Track Log - Related Links

Times and Time Zones

All times are in EDT time to prevent confusion due to time zone crossing. See the N415JA flight status page for this flight to view local times or setup timezone preferences in your user account.

Time Position Orientation Groundspeed Altitude Reporting Facility
EDT Latitude Longitude Course Direction KTS MPH feet Rate Location/Type
07:16PM 40.3978 -104.8414 98° East 259 298 10,700  Level Denver Center
07:17PM 40.3764 -104.7322 104° East 298 343 13,800 2,640 Climbing Denver Center
07:18PM 40.3236 -104.6172 121° Southeast 345 397 16,200 2,280 Climbing Denver Center
07:19PM 40.2536 -104.5125 131° Southeast 379 436 18,500 2,160 Climbing Denver Center
07:20PM 40.1786 -104.4008 131° Southeast 402 463 20,700 2,220 Climbing Denver Center
07:21PM 40.0967 -104.2772 131° Southeast 415 478 23,100 2,220 Climbing Denver Center
07:22PM 40.1032 -104.1748 98° East  Level Estimated
07:22PM 40.0153 -104.1578 132° Southeast 419 482 25,300  Level Denver Center
07:23PM 39.9356 -104.0392 131° Southeast 432 497 26,500 1,140 Climbing Denver Center
07:24PM 39.8569 -103.9119 129° Southeast 452 520 27,700 1,260 Climbing Denver Center
07:26PM 39.7933 -103.7614 119° Southeast 472 543 29,200 1,260 Climbing Denver Center
07:27PM 39.7322 -103.6197 119° Southeast 450 518 30,400 1,140 Climbing Denver Center
07:28PM 39.6692 -103.4719 119° Southeast 462 532 31,600 960 Climbing Denver Center
07:29PM 39.6061 -103.3231 119° Southeast 470 541 32,400 1,020 Climbing Denver Center
07:30PM 39.5297 -103.1475 119° Southeast 468 539 33,700 840 Climbing Denver Center
07:31PM 39.4658 -103.0008 119° Southeast 467 537 34,200 480 Climbing Denver Center
07:32PM 39.4017 -102.8547 120° Southeast 467 537 34,800 540 Climbing Denver Center
07:33PM 39.3383 -102.7100 119° Southeast 468 539 35,400 600 Climbing Denver Center
07:34PM 39.2664 -102.5458 119° Southeast 469 540 36,100 480 Climbing Denver Center
07:35PM 39.2047 -102.4056 120° Southeast 470 541 36,500 480 Climbing Denver Center
07:36PM 39.1328 -102.2431 120° Southeast 468 539 37,200 600 Climbing Denver Center
07:37PM 39.0717 -102.1058 120° Southeast 463 533 37,800 420 Climbing Denver Center
07:38PM 39.0100 -101.9683 120° Southeast 464 534 38,100 360 Climbing Denver Center
07:39PM 38.9372 -101.8097 120° Southeast 461 531 38,600 420 Climbing Denver Center
07:40PM 38.8767 -101.6725 120° Southeast 462 532 39,000 180 Climbing Denver Center
07:41PM 38.8047 -101.5158 120° Southeast 457 526 39,000  Level Denver Center
07:42PM 38.7419 -101.3786 120° Southeast 464 534 39,000  Level Denver Center
07:43PM 38.6681 -101.2189 121° Southeast 466 536 39,000  Level Denver Center
07:44PM 38.6042 -101.0806 121° Southeast 469 540 39,000  Level Denver Center
07:45PM 38.5406 -100.9425 120° Southeast 470 541 39,000  Level Denver Center
07:46PM 38.4975 -100.8467 120° Southeast 473 544 39,000  Level Kansas City Center
07:47PM 38.4217 -100.6853 121° Southeast 473 544 39,000  Level Kansas City Center
07:48PM 38.3572 -100.5461 121° Southeast 474 545 39,000  Level Kansas City Center
07:49PM 38.2919 -100.4092 121° Southeast 472 543 39,000  Level Kansas City Center
07:50PM 38.2144 -100.2472 121° Southeast 474 545 39,000  Level Kansas City Center
07:51PM 38.1489 -100.1089 121° Southeast 475 547 39,100 180 Climbing Kansas City Center
07:52PM 38.0719 -99.9497 122° Southeast 474 545 39,400 240 Climbing Kansas City Center
07:53PM 38.0083 -99.8139 121° Southeast 469 540 39,600 240 Climbing Kansas City Center
07:54PM 37.9422 -99.6803 122° Southeast 466 536 40,000 420 Climbing Kansas City Center
07:55PM 37.8686 -99.5258 121° Southeast 461 531 40,500 420 Climbing Kansas City Center
07:56PM 37.8047 -99.3961 122° Southeast 454 522 40,900 240 Climbing Kansas City Center
07:57PM 37.7406 -99.2628 121° Southeast 449 517 41,000  Climbing Kansas City Center
07:58PM 37.6753 -99.1294 122° Southeast 448 516 41,000  Level Kansas City Center
07:59PM 37.6092 -98.9944 122° Southeast 452 520 41,000  Level Kansas City Center
08:00PM 37.5408 -98.8581 122° Southeast 458 527 41,000  Level Kansas City Center
08:01PM 37.4742 -98.7219 122° Southeast 459 528 41,000  Level Kansas City Center
08:02PM 37.3922 -98.5586 122° Southeast 461 531 41,000  Level Kansas City Center
08:03PM 37.3228 -98.4206 122° Southeast 465 535 41,000  Level Kansas City Center
08:04PM 37.2536 -98.2833 122° Southeast 468 539 41,000  Level Kansas City Center
08:05PM 37.1842 -98.1461 122° Southeast 468 539 41,000  Level Kansas City Center
08:06PM 37.1150 -98.0100 122° Southeast 467 537 41,000  Level Kansas City Center
08:07PM 37.0461 -97.8733 122° Southeast 467 537 41,000  Level Kansas City Center
08:08PM 36.9764 -97.7367 123° Southeast 468 539 41,000  Level Kansas City Center
08:09PM 36.8931 -97.5717 122° Southeast 469 540 41,000  Level Kansas City Center
08:10PM 36.8231 -97.4350 123° Southeast 469 540 41,000  Level Kansas City Center
08:11PM 36.7594 -97.3089 122° Southeast 462 532 41,000  Level Kansas City Center
08:12PM 36.6914 -97.1803 123° Southeast 451 519 41,000  Level Kansas City Center
08:13PM 36.6225 -97.0517 124° Southeast 439 505 41,000  Level Kansas City Center
08:14PM 36.5583 -96.9289 123° Southeast 436 502 41,000  Level Kansas City Center
08:15PM 36.4789 -96.7761 123° Southeast 438 504 41,000  Level Kansas City Center
08:16PM 36.4097 -96.6478 124° Southeast 436 502 41,000  Level Kansas City Center
08:17PM 36.3436 -96.5211 123° Southeast 437 503 41,000  Level Kansas City Center
08:18PM 36.2758 -96.3950 124° Southeast 439 505 41,000  Level Kansas City Center
08:19PM 36.2083 -96.2678 123° Southeast 441 507 41,000  Level Kansas City Center
08:21PM 36.1394 -96.1392 124° Southeast 447 514 41,000  Level Kansas City Center
08:22PM 36.0689 -96.0106 124° Southeast 452 520 41,000  Level Kansas City Center
08:23PM 35.9986 -95.8817 124° Southeast 453 521 41,000  Level Kansas City Center
08:24PM 35.9283 -95.7514 124° Southeast 455 524 41,000  Level Kansas City Center
08:25PM 35.8428 -95.5931 124° Southeast 461 531 41,000  Level Kansas City Center
08:26PM 35.7711 -95.4614 124° Southeast 464 534 41,000  Level Kansas City Center
08:27PM 35.6986 -95.3297 124° Southeast 465 535 41,000  Level Kansas City Center
08:28PM 35.6264 -95.1978 124° Southeast 465 535 41,000  Level Kansas City Center
08:29PM 35.5531 -95.0656 124° Southeast 467 537 41,000  Level Kansas City Center
08:30PM 35.4814 -94.9322 123° Southeast 468 539 41,000  Level Kansas City Center
08:31PM 35.4017 -94.7994 126° Southeast 465 535 41,000  Level Memphis Center
08:32PM 35.3292 -94.6708 125° Southeast 465 535 41,000  Level Memphis Center
08:33PM 35.2583 -94.5450 125° Southeast 484 557 41,000  Level Memphis Center
08:34PM 35.1875 -94.4144 124° Southeast 478 550 41,000  Level Memphis Center
08:35PM 35.1125 -94.2839 125° Southeast 478 550 41,000  Level Memphis Center
08:36PM 35.0414 -94.1564 124° Southeast 472 543 41,000  Level Memphis Center
08:37PM 34.9661 -94.0214 124° Southeast 477 549 41,000  Level Memphis Center
08:38PM 34.8844 -93.8861 126° Southeast 472 543 41,000  Level Memphis Center
08:39PM 34.8172 -93.7594 123° Southeast 472 543 41,000  Level Memphis Center
08:40PM 34.7392 -93.6300 126° Southeast 472 543 41,000  Level Memphis Center
08:41PM 34.6553 -93.4853 125° Southeast 484 557 41,000  Level Memphis Center
08:42PM 34.5772 -93.3536 126° Southeast 478 550 41,000  Level Memphis Center
08:43PM 34.5011 -93.2200 125° Southeast 484 557 41,000  Level Memphis Center
08:44PM 34.4244 -93.0917 126° Southeast 484 557 41,000  Level Memphis Center
08:45PM 34.3461 -92.9558 125° Southeast 485 558 41,000  Level Memphis Center
08:46PM 34.2694 -92.8278 126° Southeast 485 558 41,000  Level Memphis Center
08:47PM 34.1928 -92.6950 125° Southeast 477 549 41,000  Level Memphis Center
08:48PM 34.1158 -92.5650 126° Southeast 482 555 41,000  Level Memphis Center
08:49PM 34.0386 -92.4303 125° Southeast 482 555 41,000  Level Memphis Center
08:50PM 33.9594 -92.3006 126° Southeast 482 555 41,000  Level Memphis Center
08:51PM 33.8800 -92.1661 125° Southeast 482 555 41,000  Level Memphis Center
08:52PM 33.8006 -92.0369 126° Southeast 482 555 41,000  Level Memphis Center
08:53PM 33.7206 -91.9106 127° Southeast 482 555 41,000  Level Memphis Center
08:54PM 33.6386 -91.7794 127° Southeast 482 555 41,000  Level Memphis Center
08:55PM 33.5608 -91.6511 126° Southeast 482 555 41,000  Level Memphis Center
08:56PM 33.4806 -91.5203 126° Southeast 482 555 41,000  Level Memphis Center
08:57PM 33.4047 -91.3900 125° Southeast 482 555 41,000  Level Memphis Center
08:58PM 33.3264 -91.2622 126° Southeast 482 555 41,000  Level Memphis Center
08:59PM 33.2458 -91.1322 127° Southeast 487 560 41,000  Level Memphis Center
09:00PM 33.1692 -91.0050 126° Southeast 480 552 41,000  Level Memphis Center
09:01PM 33.0947 -90.8903 128° Southeast 480 552 41,000  Level Memphis Center
09:02PM 33.0158 -90.7611 126° Southeast 485 558 41,000  Level Memphis Center
09:03PM 32.9389 -90.6369 126° Southeast 485 558 41,000  Level Memphis Center
09:04PM 32.8597 -90.5106 127° Southeast 485 558 41,000  Level Memphis Center
09:05PM 32.7783 -90.3819 127° Southeast 480 552 41,000  Level Memphis Center
09:06PM 32.7031 -90.2611 126° Southeast 480 552 41,000  Level Memphis Center
09:07PM 32.6278 -90.1453 128° Southeast 460 529 41,000  Level Memphis Center
09:08PM 32.5567 -90.0319 127° Southeast 446 513 41,000  Level Memphis Center
09:09PM 32.4875 -89.9189 126° Southeast 433 498 41,000  Level Memphis Center
09:10PM 32.4056 -89.7964 128° Southeast 433 498 41,000  Level Memphis Center
09:11PM 32.3361 -89.6836 126° Southeast 433 498 41,000  Level Memphis Center
09:12PM 32.2603 -89.5664 127° Southeast 433 498 41,000  Level Memphis Center
09:13PM 32.1864 -89.4539 128° Southeast 433 498 41,000  Level Memphis Center
09:14PM 32.1125 -89.3394 127° Southeast 433 498 41,000  Level Memphis Center
09:15PM 32.0403 -89.2228 126° Southeast 433 498 41,000  Level Memphis Center
09:16PM 31.9661 -89.1086 127° Southeast 433 498 41,000  Level Memphis Center
09:18PM 31.8067 -88.8694 128° Southeast 451 519 41,000  Level Houston Center
09:19PM 31.7306 -88.7522 127° Southeast 451 519 41,000  Level Houston Center
09:20PM 31.6544 -88.6364 128° Southeast 450 518 41,000  Level Houston Center
09:21PM 31.5775 -88.5194 128° Southeast 450 518 41,000  Level Houston Center
09:22PM 31.4839 -88.3789 128° Southeast 454 522 41,000  Level Houston Center
09:23PM 31.4058 -88.2619 128° Southeast 454 522 41,000  Level Houston Center
09:24PM 31.3281 -88.1433 127° Southeast 455 524 41,000  Level Houston Center
09:25PM 31.2494 -88.0247 128° Southeast 455 524 41,000  Level Houston Center
09:26PM 31.1783 -87.9189 128° Southeast 457 526 41,000  Level Houston Center
09:27PM 31.0997 -87.8053 129° Southeast 451 519 41,000  Level Houston Center
09:28PM 31.0158 -87.6797 128° Southeast 443 510 41,000  Level Houston Center
09:29PM 30.9400 -87.5683 128° Southeast 439 505 41,000  Level Houston Center
09:30PM 30.8647 -87.4567 128° Southeast 438 504 41,000  Level Houston Center
09:31PM 30.8156 -87.3842 128° Southeast 435 501 41,000  Level Jacksonville Center
09:32PM 30.7400 -87.2767 129° Southeast 435 501 41,000  Level Jacksonville Center
09:33PM 30.6644 -87.1669 129° Southeast 435 501 41,000  Level Jacksonville Center
09:34PM 30.5908 -87.0600 129° Southeast 435 501 41,000  Level Jacksonville Center
09:35PM 30.5169 -86.9531 129° Southeast 435 501 41,000  Level Jacksonville Center
09:36PM 30.4411 -86.8439 129° Southeast 435 501 41,000  Level Jacksonville Center
09:37PM 30.3672 -86.7372 129° Southeast 435 501 41,000  Level Jacksonville Center
09:38PM 30.2931 -86.6308 129° Southeast 435 501 41,000  Level Jacksonville Center
09:39PM 30.2189 -86.5247 129° Southeast 435 501 41,000  Level Jacksonville Center
09:40PM 30.1447 -86.4186 129° Southeast 435 501 41,000  Level Jacksonville Center
09:41PM 30.0744 -86.3153 128° Southeast 435 501 41,000  Level Jacksonville Center
09:42PM 29.9939 -86.2019 129° Southeast 424 488 41,000  Level Jacksonville Center
09:43PM 29.9194 -86.0989 130° Southeast 419 482 41,000  Level Jacksonville Center
09:44PM 29.8469 -85.9911 128° Southeast 419 482 41,000  Level Jacksonville Center
09:45PM 29.7722 -85.8858 129° Southeast 419 482 41,000  Level Jacksonville Center
09:46PM 29.6972 -85.7808 129° Southeast 419 482 41,000  Level Jacksonville Center
09:47PM 29.6203 -85.6758 130° Southeast 419 482 41,000  Level Jacksonville Center
09:48PM 29.5453 -85.5686 129° Southeast 424 488 41,000  Level Jacksonville Center
09:49PM 29.4703 -85.4639 129° Southeast 429 494 41,000  Level Jacksonville Center
09:50PM 29.3911 -85.3547 130° Southeast 435 501 41,000  Level Jacksonville Center
09:51PM 29.3136 -85.2503 130° Southeast 435 501 41,000  Level Jacksonville Center
09:52PM 29.2383 -85.1439 129° Southeast 435 501 41,000  Level Jacksonville Center
09:53PM 29.1631 -85.0375 129° Southeast 435 501 41,000  Level Jacksonville Center
09:56PM 28.9469 -84.7369 129° Southeast 422 486 41,000  Level Miami Center
09:57PM 28.8697 -84.6272 129° Southeast 427 491 41,000  Level Miami Center
09:58PM 28.7900 -84.5222 131° Southeast 433 498 41,000  Level Miami Center
09:59PM 28.7142 -84.4178 130° Southeast 433 498 41,000  Level Miami Center
10:00PM 28.6344 -84.3108 130° Southeast 438 504 41,000  Level Miami Center
10:01PM 28.5567 -84.2042 130° Southeast 438 504 41,000  Level Miami Center
10:02PM 28.4783 -84.1022 131° Southeast 428 493 41,000  Level Miami Center
10:03PM 28.4025 -83.9961 129° Southeast 423 487 41,000  Level Miami Center
10:04PM 28.3239 -83.8967 132° Southeast 423 487 41,000  Level Miami Center
10:05PM 28.2314 -83.7875 134° Southeast 435 501 41,000  Level Miami Center
10:06PM 28.1528 -83.6886 132° Southeast 427 491 41,000  Level Miami Center
10:07PM 28.0742 -83.5875 131° Southeast 415 478 41,000  Level Miami Center
10:08PM 27.9931 -83.4911 134° Southeast 415 478 41,000  Level Miami Center
10:09PM 27.9161 -83.3950 132° Southeast 415 478 41,000  Level Miami Center
10:10PM 27.8433 -83.2992 131° Southeast 415 478 41,000  Level Miami Center
10:11PM 27.7622 -83.2031 134° Southeast 415 478 41,000  Level Miami Center
10:12PM 27.6831 -83.1050 132° Southeast 420 483 41,000  Level Miami Center
10:13PM 27.6017 -83.0069 133° Southeast 420 483 41,000  Level Miami Center
10:14PM 27.5183 -82.9067 133° Southeast 425 489 41,000  Level Miami Center
10:15PM 27.4347 -82.8064 133° Southeast 425 489 41,000  Level Miami Center
10:16PM 27.3514 -82.7061 133° Southeast 432 497 41,000  Level Miami Center
10:17PM 27.2778 -82.6161 133° Southeast 431 496 41,000  Level Miami Center
10:18PM 27.1900 -82.5092 133° Southeast 442 509 41,000  Level Miami Center
10:19PM 27.1083 -82.4094 133° Southeast 441 507 41,000  Level Miami Center
10:20PM 27.0183 -82.3050 134° Southeast 441 507 41,000 -960 Level Miami Center
10:21PM 26.9286 -82.1961 133° Southeast 441 507 39,100 -2,220 Descending Miami Center
10:22PM 26.8425 -82.0944 133° Southeast 441 507 36,700 -2,400 Descending Miami Center
10:23PM 26.7583 -81.9975 134° Southeast 441 507 34,300 -2,340 Descending Miami Center
10:24PM 26.6742 -81.8939 132° Southeast 446 513 32,000 -2,400 Descending Miami Center
10:25PM 26.5903 -81.7906 132° Southeast 446 513 29,600 -2,400 Descending Miami Center
10:26PM 26.4997 -81.6894 135° Southeast 451 519 27,200 -2,220 Descending Miami Center
10:27PM 26.4317 -81.6008 131° Southeast 439 505 25,100 -2,220 Descending Miami Center
10:28PM 26.3511 -81.5047 133° Southeast 428 493 22,900 -2,340 Descending Miami Center
10:29PM 26.2686 -81.4089 134° Southeast 423 487 20,600 -2,340 Descending Miami Center
10:30PM 26.1881 -81.3133 133° Southeast 423 487 18,300 -2,220 Descending Miami Center
10:31PM 26.1114 -81.2247 134° Southeast 406 467 16,200 -2,220 Descending Miami Center
10:31PM 26.0628 -81.1722 136° Southeast 387 445 14,900 -1,980 Descending Miami Center
10:32PM 26.0386 -81.1389 129° Southeast 395 455 14,200 -1,860 Descending Miami Center
10:32PM 25.9981 -81.0983 138° Southeast 369 425 13,200 -1,980 Descending Miami Center
10:33PM 25.9658 -81.0578 131° Southeast 377 434 12,300 -2,040 Descending Miami Center
10:33PM 25.9353 -81.0244 136° Southeast 369 425 11,400 -1,800 Descending Miami Center
10:34PM 25.9033 -80.9817 130° Southeast 357 411 10,500 -2,100 Descending Miami Center
10:34PM 25.8753 -80.9347 124° Southeast 301 346 9,100 -2,280 Descending Miami Center
10:35PM 25.8678 -80.8997 103° East 329 379 8,200 -1,980 Descending Miami Center
10:35PM 25.8544 -80.8556 109° East 285 328 7,200 -2,160 Descending Miami Center
10:36PM 25.8514 -80.8139 95° East 290 334 6,200 -2,100 Descending Miami Center
10:36PM 25.8417 -80.7881 113° Southeast 261 300 5,400 -2,100 Descending Miami Center
10:37PM 25.8219 -80.7436 116° Southeast 268 308 4,100 -2,220 Descending Miami Center
10:37PM 25.8017 -80.7175 131° Southeast 244 281 3,200 -2,040 Descending Miami Center
10:38PM 25.7839 -80.6825 119° Southeast 244 281 2,100 -1,560 Descending Miami Center
10:38PM 25.7678 -80.6564 124° Southeast 232 267 1,600 -600 Descending Miami Center
10:39PM 25.7500 -80.6236 121° Southeast 233 268 1,500 -120 Descending Miami Center
10:39PM 25.7297 -80.6000 134° Southeast 224 258 1,500  Level Miami Center
10:40PM 25.7033 -80.5669 132° Southeast 228 262 1,500  Level Miami Center
10:40PM 25.6847 -80.5547 149° Southeast 208 239 1,500  Level Miami Center
10:41PM 25.6583 -80.5286 138° Southeast 208 239 1,500 -120 Level Miami Center
10:41PM 25.6481 -80.5214 148° Southeast 156 180 1,400 -600 Descending Miami Center
10:42PM 25.6408 -80.4775 100° East 110 127 700 -660 Descending Miami Center
10:44PM 25.6476 -80.4332 116° Southeast  Level Estimated
10:51PM 25.6476 -80.4332 116° Southeast  Level Estimated
10:52PM 25.6476 -80.4332 116° Southeast  Level Estimated
10:53PM 25.6476 -80.4332 116° Southeast  Level Estimated
10:54PM 25.6476 -80.4332 116° Southeast  Level Estimated
10:55PM 25.6476 -80.4332 116° Southeast  Level Estimated
10:56PM 25.6476 -80.4332 116° Southeast  Level Estimated
10:57PM 25.6476 -80.4332 116° Southeast  Level Estimated